createdAt,value
2018-02-22T00:00:48.587Z,5.50
2018-02-22T00:03:17.755Z,6.17
2018-02-22T00:05:46.756Z,5.53
2018-02-22T00:08:15.735Z,5.87
2018-02-22T00:10:44.677Z,5.27
2018-02-22T00:13:13.608Z,6.77
2018-02-22T00:15:42.656Z,5.80
2018-02-22T00:18:11.622Z,6.43
2018-02-22T00:20:40.696Z,5.60
2018-02-22T00:23:09.668Z,5.70
2018-02-22T00:25:38.742Z,5.80
2018-02-22T00:28:07.721Z,5.97
2018-02-22T00:30:36.745Z,5.57
2018-02-22T00:33:05.707Z,5.63
2018-02-22T00:35:34.741Z,6.43
2018-02-22T00:38:03.771Z,6.13
2018-02-22T00:40:32.629Z,5.90
2018-02-22T00:43:01.667Z,5.73
2018-02-22T00:45:30.684Z,5.40
2018-02-22T00:47:59.728Z,4.83
2018-02-22T00:50:28.651Z,5.83
2018-02-22T00:52:57.675Z,6.00
2018-02-22T00:55:26.753Z,5.23
2018-02-22T00:57:55.639Z,5.40
2018-02-22T01:00:24.725Z,5.53
2018-02-22T01:02:53.745Z,5.50
2018-02-22T01:05:22.902Z,5.20
2018-02-22T01:10:20.755Z,5.70
2018-02-22T01:12:49.687Z,6.20
2018-02-22T01:15:18.811Z,5.20
2018-02-22T01:20:22.315Z,5.80
2018-02-22T01:22:52.495Z,4.93
2018-02-22T01:25:21.752Z,6.20
2018-02-22T01:27:50.740Z,5.27
2018-02-22T01:30:19.655Z,5.53
2018-02-22T01:32:48.713Z,6.00
2018-02-22T01:35:17.807Z,5.47
2018-02-22T01:37:46.900Z,5.37
2018-02-22T01:42:44.210Z,5.77
2018-02-22T01:45:13.176Z,5.07
2018-02-22T01:47:41.857Z,5.03
2018-02-22T01:50:10.704Z,5.50
2018-02-22T01:52:39.656Z,5.47
2018-02-22T01:55:08.779Z,4.93
2018-02-22T01:57:37.700Z,4.53
2018-02-22T02:00:06.676Z,6.10
2018-02-22T02:05:50.516Z,5.63
2018-02-22T02:08:19.476Z,5.40
2018-02-22T02:10:48.627Z,5.27
2018-02-22T02:13:17.740Z,4.63
2018-02-22T02:15:46.767Z,5.57
2018-02-22T02:23:31.196Z,5.07
2018-02-22T02:26:00.705Z,4.57
2018-02-22T02:28:29.692Z,4.67
2018-02-22T02:30:58.660Z,6.23
2018-02-22T02:33:27.822Z,4.90
2018-02-22T02:41:49.671Z,5.60
2018-02-22T02:44:18.725Z,5.80
2018-02-22T02:46:47.627Z,4.80
2018-02-22T02:51:45.713Z,5.33
2018-02-22T02:54:14.608Z,4.80
2018-02-22T02:56:43.693Z,5.10
2018-02-22T02:59:12.807Z,5.00
2018-02-22T03:01:41.672Z,5.27
2018-02-22T03:04:10.738Z,5.23
2018-02-22T03:06:39.668Z,6.07
2018-02-22T03:09:08.780Z,5.53
2018-02-22T03:11:37.700Z,6.17
2018-02-22T03:14:06.647Z,5.83
2018-02-22T03:19:04.512Z,4.50
2018-02-22T03:21:33.512Z,4.47
2018-02-22T03:24:02.521Z,5.07
2018-02-22T03:26:31.592Z,4.97
2018-02-22T03:30:28.643Z,4.70
2018-02-22T03:32:57.599Z,4.80
2018-02-22T03:35:26.640Z,5.53
2018-02-22T03:37:55.787Z,4.07
2018-02-22T03:40:24.735Z,5.30
2018-02-22T03:42:53.655Z,4.73
2018-02-22T03:45:22.747Z,5.37
2018-02-22T03:47:51.669Z,5.63
2018-02-22T03:50:20.602Z,4.40
2018-02-22T03:52:49.812Z,4.93
2018-02-22T03:57:15.632Z,5.10
2018-02-22T03:59:44.877Z,4.47
2018-02-22T04:02:13.721Z,4.63
2018-02-22T04:04:42.691Z,4.33
2018-02-22T04:07:11.771Z,5.17
2018-02-22T04:09:40.724Z,4.93
2018-02-22T04:15:36.442Z,4.60
2018-02-22T04:18:05.717Z,5.07
2018-02-22T04:20:35.237Z,4.77
2018-02-22T04:23:04.551Z,5.60
2018-02-22T04:25:33.700Z,4.97
2018-02-22T04:28:02.708Z,5.07
2018-02-22T04:30:31.635Z,4.60
2018-02-22T04:34:12.487Z,4.77
2018-02-22T04:36:41.691Z,4.10
2018-02-22T04:39:10.710Z,4.43
2018-02-22T04:41:39.716Z,4.63
2018-02-22T04:44:08.680Z,4.93
2018-02-22T04:46:37.663Z,5.33
2018-02-22T04:49:06.623Z,5.33
2018-02-22T04:51:35.746Z,4.73
2018-02-22T04:55:55.651Z,4.47
2018-02-22T04:58:25.512Z,5.33
2018-02-22T05:00:54.844Z,5.00
2018-02-22T05:03:23.745Z,6.33
2018-02-22T05:05:52.673Z,4.77
2018-02-22T05:08:21.680Z,4.73
2018-02-22T05:10:50.640Z,5.50
2018-02-22T05:13:19.688Z,5.30
2018-02-22T05:15:48.645Z,3.93
2018-02-22T05:18:43.676Z,4.53
2018-02-22T05:21:12.643Z,5.97
2018-02-22T05:23:41.667Z,5.13
2018-02-22T05:27:27.581Z,4.10
2018-02-22T05:29:56.643Z,5.03
2018-02-22T05:32:25.791Z,4.67
2018-02-22T05:34:54.704Z,4.60
2018-02-22T05:37:23.651Z,5.27
2018-02-22T05:39:52.677Z,4.93
2018-02-22T05:42:21.805Z,4.83
2018-02-22T05:44:51.357Z,5.17
2018-02-22T05:47:20.676Z,4.60
2018-02-22T05:56:39.464Z,6.07
2018-02-22T05:59:08.521Z,4.83
2018-02-22T06:01:37.708Z,4.50
2018-02-22T06:04:06.681Z,4.17
2018-02-22T06:06:35.902Z,4.73
2018-02-22T06:11:33.740Z,5.17
2018-02-22T06:14:02.737Z,4.07
2018-02-22T06:16:31.904Z,4.77
2018-02-22T06:19:47.766Z,4.10
2018-02-22T06:22:17.211Z,4.53
2018-02-22T06:24:46.626Z,5.17
2018-02-22T06:27:15.789Z,5.03
2018-02-22T06:29:44.686Z,5.20
2018-02-22T06:32:13.691Z,5.17
2018-02-22T06:34:42.740Z,4.97
2018-02-22T06:37:11.688Z,4.67
2018-02-22T06:39:40.746Z,4.60
2018-02-22T06:42:09.710Z,4.83
2018-02-22T06:44:38.892Z,5.37
2018-02-22T06:49:10.657Z,4.27
2018-02-22T06:51:39.707Z,6.90
2018-02-22T06:55:48.579Z,5.60
2018-02-22T07:00:24.716Z,4.30
2018-02-22T07:02:53.689Z,6.20
2018-02-22T07:05:22.777Z,5.83
2018-02-22T07:07:51.713Z,4.37
2018-02-22T07:10:20.645Z,4.50
2018-02-22T07:12:49.769Z,4.53
2018-02-22T07:15:20.513Z,5.13
2018-02-22T07:17:49.598Z,4.17
2018-02-22T07:20:18.749Z,4.90
2018-02-22T07:22:47.668Z,4.43
2018-02-22T07:25:16.680Z,5.50
2018-02-22T07:27:46.452Z,4.47
2018-02-22T07:32:07.441Z,4.57
2018-02-22T07:34:36.506Z,4.37
2018-02-22T07:37:05.664Z,4.80
2018-02-22T07:39:34.664Z,4.63
2018-02-22T07:42:03.688Z,4.23
2018-02-22T07:44:32.736Z,4.57
2018-02-22T07:47:01.664Z,4.80
2018-02-22T07:49:30.756Z,4.37
2018-02-22T07:51:59.700Z,4.00
2018-02-22T07:54:28.603Z,5.23
2018-02-22T07:56:57.679Z,4.90
2018-02-22T07:59:26.603Z,3.93
2018-02-22T08:01:55.685Z,3.93
2018-02-22T08:04:24.908Z,4.30
2018-02-22T08:09:22.511Z,5.17
2018-02-22T08:11:51.643Z,3.80
2018-02-22T08:14:20.713Z,4.47
2018-02-22T08:16:49.797Z,4.57
2018-02-22T08:19:18.700Z,3.87
2018-02-22T08:21:47.795Z,3.47
2018-02-22T08:24:16.739Z,3.63
2018-02-22T08:26:45.653Z,4.10
2018-02-22T08:29:14.733Z,4.50
2018-02-22T08:31:43.722Z,3.93
2018-02-22T08:34:12.748Z,4.40
2018-02-22T08:36:41.884Z,3.83
2018-02-22T08:41:56.724Z,3.70
2018-02-22T08:44:25.771Z,4.00
2018-02-22T08:46:54.656Z,4.10
2018-02-22T08:49:23.718Z,3.50
2018-02-22T08:56:57.600Z,4.93
2018-02-22T08:59:26.892Z,4.20
2018-02-22T09:04:24.528Z,4.17
2018-02-22T09:06:53.517Z,4.00
2018-02-22T09:09:22.756Z,3.53
2018-02-22T09:11:51.764Z,4.40
2018-02-22T09:14:20.664Z,3.37
2018-02-22T09:16:49.805Z,3.93
2018-02-22T09:19:18.693Z,4.67
2018-02-22T09:21:47.753Z,3.20
2018-02-22T09:24:16.747Z,3.30
2018-02-22T09:26:45.764Z,3.10
2018-02-22T09:29:14.733Z,3.20
2018-02-22T09:31:43.732Z,4.20
2018-02-22T09:34:12.680Z,3.17
2018-02-22T09:36:41.753Z,3.00
2018-02-22T09:39:11.184Z,3.03
2018-02-22T09:41:40.298Z,3.40
2018-02-22T09:44:10.377Z,3.17
2018-02-22T09:46:40.294Z,3.00
2018-02-22T09:49:09.506Z,3.20
2018-02-22T09:51:38.697Z,3.67
2018-02-22T09:54:07.704Z,3.80
2018-02-22T09:56:36.697Z,3.07
2018-02-22T09:59:06.218Z,3.20
2018-02-22T10:01:35.417Z,3.33
2018-02-22T10:04:04.689Z,3.20
2018-02-22T10:06:33.697Z,3.40
2018-02-22T10:09:02.887Z,4.07
2018-02-22T10:17:58.587Z,3.63
2018-02-22T10:20:27.685Z,4.40
2018-02-22T10:25:28.735Z,3.20
2018-02-22T10:27:57.687Z,2.97
2018-02-22T10:30:26.673Z,3.10
2018-02-22T10:32:55.591Z,3.00
2018-02-22T10:35:24.752Z,3.43
2018-02-22T10:37:53.639Z,3.43
2018-02-22T10:40:22.745Z,4.20
2018-02-22T10:42:52.335Z,3.43
2018-02-22T10:45:21.620Z,2.80
2018-02-22T10:47:50.607Z,3.63
2018-02-22T10:50:19.716Z,5.10
2018-02-22T10:52:48.669Z,4.57
2018-02-22T10:55:17.710Z,3.57
2018-02-22T10:57:46.832Z,3.37
2018-02-22T11:00:15.774Z,2.67
2018-02-22T11:02:50.675Z,4.33
2018-02-22T11:05:19.754Z,3.23
2018-02-22T11:07:48.704Z,3.07
2018-02-22T11:10:17.627Z,3.80
2018-02-22T11:12:46.686Z,3.00
2018-02-22T11:15:15.703Z,2.43
2018-02-22T11:17:44.656Z,4.20
2018-02-22T11:20:13.796Z,2.87
2018-02-22T11:24:03.737Z,3.23
2018-02-22T11:26:32.619Z,3.37
2018-02-22T11:29:01.680Z,6.13
2018-02-22T11:31:30.676Z,3.93
2018-02-22T11:33:59.672Z,3.37
2018-02-22T11:36:28.657Z,5.63
2018-02-22T11:38:57.680Z,6.00
2018-02-22T11:41:26.705Z,8.57
2018-02-22T11:43:56.331Z,8.43
2018-02-22T11:46:25.221Z,10.83
2018-02-22T11:48:54.320Z,10.30
2018-02-22T11:51:23.622Z,9.53
2018-02-22T11:53:52.735Z,11.00
2018-02-22T11:56:21.659Z,14.03
2018-02-22T11:58:50.688Z,21.97
2018-02-22T12:01:19.851Z,16.23
2018-02-22T12:03:48.644Z,20.20
2018-02-22T12:06:17.760Z,16.57
2018-02-22T12:08:46.667Z,19.47
2018-02-22T12:12:01.908Z,17.83
2018-02-22T12:16:59.720Z,19.17
2018-02-22T12:19:28.668Z,12.73
2018-02-22T12:21:57.734Z,13.47
2018-02-22T12:24:26.770Z,10.53
2018-02-22T12:26:55.733Z,16.03
2018-02-22T12:29:24.664Z,9.83
2018-02-22T12:31:53.784Z,9.80
2018-02-22T12:34:22.740Z,12.03
2018-02-22T12:36:51.635Z,10.63
2018-02-22T12:39:20.698Z,8.90
2018-02-22T12:41:49.778Z,11.20
2018-02-22T12:44:18.883Z,11.60
2018-02-22T12:49:16.688Z,23.00
2018-02-22T12:51:45.799Z,26.40
2018-02-22T12:54:14.780Z,25.63
2018-02-22T12:56:43.692Z,18.53
2018-02-22T12:59:13.206Z,20.93
2018-02-22T13:01:42.754Z,21.13
2018-02-22T13:04:11.696Z,18.33
2018-02-22T13:06:40.788Z,14.20
2018-02-22T13:09:09.665Z,16.20
2018-02-22T13:11:38.856Z,18.23
2018-02-22T13:16:36.540Z,16.63
2018-02-22T13:19:06.281Z,12.70
2018-02-22T13:21:35.551Z,16.03
2018-02-22T13:24:04.784Z,12.03
2018-02-22T13:26:33.667Z,12.03
2018-02-22T13:29:02.732Z,12.83
2018-02-22T13:31:31.787Z,11.43
2018-02-22T13:34:12.680Z,10.93
2018-02-22T13:36:43.597Z,11.93
2018-02-22T13:39:12.630Z,8.93
2018-02-22T13:41:41.645Z,9.53
2018-02-22T13:44:22.903Z,8.67
2018-02-22T13:49:32.483Z,11.73
2018-02-22T13:52:01.710Z,9.20
2018-02-22T13:54:30.733Z,11.00
2018-02-22T13:57:08.777Z,7.97
2018-02-22T13:59:38.027Z,11.47
2018-02-22T14:04:41.693Z,9.50
2018-02-22T14:07:10.865Z,8.53
2018-02-22T14:09:39.874Z,7.80
2018-02-22T14:12:09.434Z,8.53
2018-02-22T14:14:38.748Z,6.83
2018-02-22T14:17:07.692Z,7.70
2018-02-22T14:19:36.655Z,6.70
2018-02-22T14:22:05.737Z,6.93
2018-02-22T14:24:34.671Z,6.93
2018-02-22T14:27:03.692Z,7.53
2018-02-22T14:29:32.634Z,7.37
2018-02-22T14:41:23.701Z,6.80
2018-02-22T14:46:14.742Z,8.67
2018-02-22T14:48:44.668Z,5.30
2018-02-22T14:51:14.629Z,6.30
2018-02-22T14:56:04.703Z,6.67
2018-02-22T14:58:34.031Z,5.83
2018-02-22T15:03:39.758Z,5.87
2018-02-22T15:06:09.508Z,6.47
2018-02-22T15:08:38.659Z,6.00
2018-02-22T15:11:07.646Z,4.57
2018-02-22T15:13:36.674Z,5.57
2018-02-22T15:16:05.723Z,4.83
2018-02-22T15:18:34.636Z,6.07
2018-02-22T15:21:03.766Z,5.77
2018-02-22T15:23:33.216Z,3.50
2018-02-22T15:26:01.889Z,5.53
2018-02-22T15:30:59.416Z,4.17
2018-02-22T15:33:28.720Z,5.70
2018-02-22T15:35:57.865Z,4.40
2018-02-22T15:38:26.700Z,6.67
2018-02-22T15:40:55.681Z,4.07
2018-02-22T15:43:49.522Z,4.17
2018-02-22T15:46:18.768Z,4.17
2018-02-22T15:48:47.748Z,2.97
2018-02-22T15:51:16.774Z,4.17
2018-02-22T15:59:05.709Z,3.03
2018-02-22T16:01:51.494Z,4.70
2018-02-22T16:04:21.203Z,4.47
2018-02-22T16:06:50.698Z,3.37
2018-02-22T16:09:19.691Z,4.63
2018-02-22T16:11:48.751Z,3.87
2018-02-22T16:14:18.438Z,4.23
2018-02-22T16:16:47.736Z,3.60
2018-02-22T16:22:04.165Z,5.53
2018-02-22T16:24:33.668Z,4.33
2018-02-22T16:27:02.708Z,2.57
2018-02-22T16:29:31.744Z,4.40
2018-02-22T16:32:00.909Z,3.03
2018-02-22T16:34:29.709Z,3.03
2018-02-22T16:36:58.699Z,3.73
2018-02-22T16:39:27.688Z,4.03
2018-02-22T16:41:56.686Z,3.83
2018-02-22T16:44:25.606Z,3.37
2018-02-22T16:46:54.676Z,3.50
2018-02-22T16:49:23.732Z,3.33
2018-02-22T16:51:52.673Z,2.33
2018-02-22T16:54:21.624Z,3.03
2018-02-22T16:56:50.742Z,3.57
2018-02-22T16:59:19.647Z,4.10
2018-02-22T17:01:48.659Z,3.13
2018-02-22T17:04:18.040Z,2.80
2018-02-22T17:09:15.928Z,2.20
2018-02-22T17:14:13.678Z,2.97
2018-02-22T17:16:42.715Z,2.20
2018-02-22T17:19:11.799Z,3.60
2018-02-22T17:21:40.898Z,3.47
2018-02-22T17:24:09.825Z,3.00
2018-02-22T17:26:44.531Z,3.13
2018-02-22T17:29:19.585Z,2.43
2018-02-22T17:31:54.775Z,3.10
2018-02-22T17:34:24.285Z,2.60
2018-02-22T17:39:24.328Z,2.27
2018-02-22T17:46:09.640Z,2.20
2018-02-22T17:48:38.706Z,2.60
2018-02-22T17:51:07.636Z,3.43
2018-02-22T17:53:36.749Z,2.33
2018-02-22T17:56:06.595Z,2.77
2018-02-22T17:58:35.642Z,3.53
2018-02-22T18:01:05.374Z,2.63
2018-02-22T18:03:34.310Z,2.23
2018-02-22T18:06:03.700Z,2.23
2018-02-22T18:08:32.685Z,2.77
2018-02-22T18:11:01.667Z,2.23
2018-02-22T18:13:30.785Z,3.00
2018-02-22T18:15:59.862Z,2.60
2018-02-22T18:19:18.676Z,2.60
2018-02-22T18:21:48.446Z,2.53
2018-02-22T18:24:17.692Z,2.73
2018-02-22T18:26:46.648Z,3.10
2018-02-22T18:29:15.755Z,2.70
2018-02-22T18:31:44.704Z,2.37
2018-02-22T18:36:21.486Z,2.10
2018-02-22T18:38:56.343Z,2.47
2018-02-22T18:41:25.396Z,2.87
2018-02-22T18:44:00.525Z,2.53
2018-02-22T18:46:29.656Z,2.87
2018-02-22T18:48:58.684Z,2.23
2018-02-22T18:51:27.635Z,2.20
2018-02-22T18:53:56.631Z,2.53
2018-02-22T18:56:25.741Z,2.80
2018-02-22T18:58:54.690Z,2.57
2018-02-22T19:01:23.664Z,2.60
2018-02-22T19:03:52.650Z,2.77
2018-02-22T19:06:21.707Z,2.50
2018-02-22T19:08:50.665Z,3.00
2018-02-22T19:11:19.866Z,2.50
2018-02-22T19:15:49.654Z,2.80
2018-02-22T19:18:18.665Z,1.83
2018-02-22T19:20:47.734Z,2.30
2018-02-22T19:23:16.652Z,2.90
2018-02-22T19:25:45.647Z,2.67
2018-02-22T19:28:14.682Z,2.03
2018-02-22T19:32:26.467Z,2.07
2018-02-22T19:34:55.706Z,2.13
2018-02-22T19:37:24.714Z,2.60
2018-02-22T19:40:27.702Z,2.30
2018-02-22T19:42:56.802Z,1.83
2018-02-22T19:45:25.684Z,2.10
2018-02-22T19:47:54.665Z,2.30
2018-02-22T19:50:23.747Z,2.73
2018-02-22T19:52:52.688Z,1.97
2018-02-22T19:55:21.693Z,2.10
2018-02-22T19:57:50.667Z,1.77
2018-02-22T20:00:19.745Z,2.77
2018-02-22T20:02:48.708Z,2.43
2018-02-22T20:05:17.739Z,2.13
2018-02-22T20:07:46.706Z,2.07
2018-02-22T20:10:15.653Z,2.23
2018-02-22T20:12:44.886Z,2.47
2018-02-22T20:17:42.683Z,2.10
2018-02-22T20:20:11.678Z,2.30
2018-02-22T20:22:40.656Z,2.23
2018-02-22T20:25:09.698Z,2.47
2018-02-22T20:27:38.660Z,1.83
2018-02-22T20:31:38.844Z,1.87
2018-02-22T20:34:07.613Z,2.33
2018-02-22T20:36:36.760Z,1.60
2018-02-22T20:39:05.601Z,1.93
2018-02-22T20:41:34.676Z,1.90
2018-02-22T20:45:13.512Z,1.60
2018-02-22T20:47:42.638Z,2.23
2018-02-22T20:53:13.704Z,1.93
2018-02-22T20:55:43.754Z,1.87
2018-02-22T20:58:12.729Z,1.80
2018-02-22T21:00:41.724Z,2.13
2018-02-22T21:03:10.699Z,2.10
2018-02-22T21:05:39.656Z,1.60
2018-02-22T21:08:08.717Z,2.10
2018-02-22T21:12:13.326Z,1.77
2018-02-22T21:14:42.312Z,1.90
2018-02-22T21:17:11.888Z,1.93
2018-02-22T21:22:09.710Z,2.10
2018-02-22T21:24:39.188Z,2.30
2018-02-22T21:29:31.570Z,2.33
2018-02-22T21:32:00.732Z,2.37
2018-02-22T21:34:29.735Z,2.23
2018-02-22T21:36:58.748Z,1.87
2018-02-22T21:44:43.668Z,2.13
2018-02-22T21:47:12.772Z,2.67
2018-02-22T21:49:41.764Z,2.93
2018-02-22T21:52:10.720Z,1.90
2018-02-22T21:54:39.687Z,2.20
2018-02-22T21:57:08.807Z,2.63
2018-02-22T21:59:37.756Z,2.43
2018-02-22T22:02:06.613Z,1.93
2018-02-22T22:04:35.684Z,2.27
2018-02-22T22:11:16.685Z,2.80
2018-02-22T22:13:49.419Z,2.40
2018-02-22T22:16:18.373Z,2.10
2018-02-22T22:18:47.224Z,1.90
2018-02-22T22:21:16.056Z,2.40
2018-02-22T22:25:30.698Z,1.87
2018-02-22T22:27:59.710Z,2.30
2018-02-22T22:30:28.723Z,2.20
2018-02-22T22:32:57.866Z,2.53
2018-02-22T22:36:31.563Z,2.10
2018-02-22T22:39:00.760Z,2.00
2018-02-22T22:41:29.627Z,2.50
2018-02-22T22:43:58.681Z,1.97
2018-02-22T22:46:27.748Z,2.23
2018-02-22T22:48:56.655Z,2.10
2018-02-22T22:51:25.742Z,2.30
2018-02-22T22:53:54.672Z,1.90
2018-02-22T22:56:23.659Z,2.33
2018-02-22T22:58:53.452Z,2.03
2018-02-22T23:01:22.645Z,2.00
2018-02-22T23:03:52.537Z,2.20
2018-02-22T23:06:21.534Z,1.93
2018-02-22T23:08:50.669Z,1.50
2018-02-22T23:11:19.712Z,1.83
2018-02-22T23:13:48.616Z,2.03
2018-02-22T23:16:17.636Z,1.90
2018-02-22T23:18:46.706Z,2.00
2018-02-22T23:21:15.639Z,1.67
2018-02-22T23:23:44.623Z,1.90
2018-02-22T23:26:13.638Z,3.07
2018-02-22T23:28:42.708Z,1.93
2018-02-22T23:31:11.683Z,1.77
2018-02-22T23:33:40.620Z,1.93
2018-02-22T23:36:09.701Z,2.03
2018-02-22T23:47:52.506Z,1.80
2018-02-22T23:52:52.677Z,1.87
2018-02-22T23:55:21.759Z,1.73
2018-02-22T23:57:50.692Z,2.07
